Airfield :
LOGIN :

Register | Disclaimer

   EN    FR    IT 

 










Legend :    VFR   Marginal VFR   IFR   Intensive IFR   Very Intensive IFR
Visi :
Ceiling :
>= 8 km
>= 3000ft
5 to 8 km
1000 to 3000 ft
1500m to 5 km
500 to 1000 ft
800 to 1500m
200 to 500 ft
< 800m
< 200 ft
Symbols :   Thunderstorms  Fog  Heavy snow  Heavy precipitations  Wind > 20 kt
SIGMETs :     Misc.  Thunderstorms  Icing  Turbulence  Mountain Waves  Volcanic Ashes







- Airport Elevation : 1516 ft
- IATA code : AGB


EDMA - Augsburg

CURRENT METAR :
  • 120750Z 24005KT 9000 FEW009 OVC016 00/M01 Q1022

EXPIRED METARs :
  • 120720Z 25004KT 8000 SCT013 OVC016 00/M01 Q1022
  • 120650Z 26005KT 8000 OVC013 00/M01 Q1022
  • 120620Z 25005KT 9999 SCT010 OVC012 00/M01 Q1022
  • 120550Z 25005KT 8000 -RASN SCT010 OVC012 00/M01 Q1021

TAF TAF EDMA
Valid from the 12 at 07:00 until the 12 at 15:00 UTC


120632Z 1207/1215 26005KT 9999 OVC012
TEMPO 1207/1210 4000 -SN BKN006
BECMG 1210/1212 BKN020
PROB30
TEMPO 1210/1215 4000 -SN BKN012
No reported NOTAMs for that airfield.



MET'MAP, your aeronautical weather chart ! - Copyright ORBIFLY December 2007 - Disclaimer

ORBIFLY MET'MAP TEAM :

Programming & Development : Alexandra Zaïnal
Concept & Development : Baudouin d'Aumeries
Co-Development & Prog : Marc-Olivier Méhu
Technical & hardware support : Manuel Goepfert

Contact : metmap@orbifly.com




SOURCES & CREDITS :

   NOAA